Time;durP1;ratioP1;P1;durP2;ratioP2;P2;SDS_P1;SDS_P2;PMS_P1;PMS_P2;Temp;Humidity;BMP_temperature;BMP_pressure;BME280_temperature;BME280_humidity;BME280_pressure;Samples;Min_cycle;Max_cycle;Signal;HPM_P1;HPM_P2
2022/07/23 00:00:33;;;;;;;17.98;7.90;;;;;;;;;;5051793;28;20442;-64
2022/07/23 00:02:58;;;;;;;14.25;8.05;;;;;;;;;;5055932;28;20036;-64
2022/07/23 00:05:23;;;;;;;12.68;8.15;;;;;;;;;;5051246;28;20036;-64
2022/07/23 00:07:49;;;;;;;12.52;8.02;;;;;;;;;;5058330;28;20076;-64
2022/07/23 00:10:14;;;;;;;19.02;8.50;;;;;;;;;;5060391;28;20040;-64
2022/07/23 00:12:40;;;;;;;13.13;8.55;;;;;;;;;;5063983;28;20041;-64
2022/07/23 00:15:07;;;;;;;13.30;8.38;;;;;;;;;;5054895;28;20135;-64
2022/07/23 00:17:33;;;;;;;20.27;8.80;;;;;;;;;;5064208;28;20037;-64
2022/07/23 00:19:58;;;;;;;14.52;8.52;;;;;;;;;;5069908;28;20175;-63
2022/07/23 00:22:24;;;;;;;16.30;8.43;;;;;;;;;;5051416;28;20496;-63
2022/07/23 00:24:49;;;;;;;15.55;8.55;;;;;;;;;;5052733;28;20052;-63
2022/07/23 00:27:14;;;;;;;12.57;8.32;;;;;;;;;;5052327;28;20551;-63
2022/07/23 00:29:40;;;;;;;17.05;8.50;;;;;;;;;;5069776;28;20035;-63
2022/07/23 00:32:05;;;;;;;16.08;8.65;;;;;;;;;;5053317;28;20025;-63
2022/07/23 00:34:31;;;;;;;16.42;9.13;;;;;;;;;;5048348;28;20028;-64
2022/07/23 00:36:57;;;;;;;17.65;8.57;;;;;;;;;;5050933;28;20040;-62
2022/07/23 00:39:22;;;;;;;14.18;8.50;;;;;;;;;;5050963;28;20029;-63
2022/07/23 00:41:49;;;;;;;15.45;8.90;;;;;;;;;;5051655;28;20040;-63
2022/07/23 00:44:20;;;;;;;17.27;9.05;;;;;;;;;;5056870;28;20087;-63
2022/07/23 00:46:57;;;;;;;14.63;8.82;;;;;;;;;;5049349;28;20473;-63
2022/07/23 00:49:26;;;;;;;20.90;9.25;;;;;;;;;;5032631;28;20060;-62
2022/07/23 00:51:52;;;;;;;15.68;9.20;;;;;;;;;;5071145;28;20028;-62
2022/07/23 00:54:19;;;;;;;15.05;9.25;;;;;;;;;;5057274;28;20367;-62
2022/07/23 00:56:46;;;;;;;14.95;8.85;;;;;;;;;;5050232;28;20052;-62
2022/07/23 00:59:12;;;;;;;14.50;9.20;;;;;;;;;;5061819;28;20404;-63
2022/07/23 01:01:37;;;;;;;20.08;9.32;;;;;;;;;;5068300;28;20040;-62
2022/07/23 01:04:03;;;;;;;16.00;9.57;;;;;;;;;;5058085;28;20057;-63
2022/07/23 01:06:28;;;;;;;16.92;9.98;;;;;;;;;;5052924;28;20082;-63
2022/07/23 01:08:55;;;;;;;18.00;9.48;;;;;;;;;;5069431;28;20071;-62
2022/07/23 01:11:22;;;;;;;18.98;10.52;;;;;;;;;;5038359;28;20040;-62
2022/07/23 01:13:48;;;;;;;20.00;10.02;;;;;;;;;;5066964;28;20469;-62
2022/07/23 01:16:13;;;;;;;19.02;9.40;;;;;;;;;;5057096;28;20174;-62
2022/07/23 01:18:39;;;;;;;17.50;9.98;;;;;;;;;;5060129;28;20055;-62
2022/07/23 01:21:05;;;;;;;16.55;9.73;;;;;;;;;;5071025;28;20056;-62
2022/07/23 01:23:30;;;;;;;18.38;9.75;;;;;;;;;;5061310;28;20096;-62
2022/07/23 01:25:56;;;;;;;17.55;9.77;;;;;;;;;;5050987;28;20033;-62
2022/07/23 01:28:22;;;;;;;17.00;9.68;;;;;;;;;;5050283;28;20127;-63
2022/07/23 01:30:48;;;;;;;18.33;11.38;;;;;;;;;;5061096;28;20401;-63
2022/07/23 01:33:13;;;;;;;26.13;13.45;;;;;;;;;;5032652;28;20142;-64
2022/07/23 01:35:39;;;;;;;15.82;9.98;;;;;;;;;;5048159;28;20461;-62
2022/07/23 01:38:04;;;;;;;22.15;10.88;;;;;;;;;;5049742;28;20036;-63
2022/07/23 01:40:30;;;;;;;18.40;10.30;;;;;;;;;;5051680;28;20028;-62
2022/07/23 01:42:55;;;;;;;18.60;10.98;;;;;;;;;;5058593;28;20397;-62
2022/07/23 01:45:20;;;;;;;17.55;10.80;;;;;;;;;;5063626;28;20032;-63
2022/07/23 01:47:47;;;;;;;15.73;10.32;;;;;;;;;;5061265;28;20029;-63
2022/07/23 01:50:12;;;;;;;17.55;10.52;;;;;;;;;;5052992;28;20090;-62
2022/07/23 01:52:38;;;;;;;19.35;10.30;;;;;;;;;;5053166;28;20033;-62
2022/07/23 01:55:03;;;;;;;20.63;10.95;;;;;;;;;;5069303;28;20462;-62
2022/07/23 01:57:29;;;;;;;17.48;10.70;;;;;;;;;;5055140;28;20127;-62
2022/07/23 01:59:54;;;;;;;21.10;10.45;;;;;;;;;;5054771;28;20369;-62
2022/07/23 02:02:20;;;;;;;19.45;10.45;;;;;;;;;;5050727;28;20033;-62
2022/07/23 02:04:45;;;;;;;21.83;10.93;;;;;;;;;;5052604;28;20036;-62
2022/07/23 02:07:10;;;;;;;16.35;10.32;;;;;;;;;;5064505;28;20056;-62
2022/07/23 02:09:36;;;;;;;21.05;10.40;;;;;;;;;;5071436;28;20098;-62
2022/07/23 02:12:02;;;;;;;17.70;10.43;;;;;;;;;;5069041;28;20041;-63
2022/07/23 02:14:27;;;;;;;18.73;10.70;;;;;;;;;;5053334;28;20086;-62
2022/07/23 02:16:53;;;;;;;20.02;11.07;;;;;;;;;;5071650;28;20028;-62
2022/07/23 02:19:18;;;;;;;18.40;11.13;;;;;;;;;;5072123;28;20039;-62
2022/07/23 02:21:44;;;;;;;19.60;11.10;;;;;;;;;;5070202;28;20193;-63
2022/07/23 02:24:10;;;;;;;20.15;11.07;;;;;;;;;;5066897;28;20052;-62
2022/07/23 02:26:35;;;;;;;19.77;11.30;;;;;;;;;;5056287;28;20024;-62
2022/07/23 02:29:02;;;;;;;15.63;10.32;;;;;;;;;;5056221;28;20043;-62
2022/07/23 02:31:29;;;;;;;23.48;10.88;;;;;;;;;;5069880;28;20028;-62
2022/07/23 02:33:55;;;;;;;17.05;10.85;;;;;;;;;;5071114;28;20044;-62
2022/07/23 02:36:21;;;;;;;18.75;11.20;;;;;;;;;;5073632;28;20024;-62
2022/07/23 02:38:46;;;;;;;19.13;11.27;;;;;;;;;;5068989;28;20060;-62
2022/07/23 02:41:12;;;;;;;19.15;11.25;;;;;;;;;;5073197;28;20485;-62
2022/07/23 02:43:37;;;;;;;20.52;12.15;;;;;;;;;;5068381;28;20025;-62
2022/07/23 02:46:03;;;;;;;23.13;11.55;;;;;;;;;;5073131;28;20101;-63
2022/07/23 02:48:28;;;;;;;25.83;11.95;;;;;;;;;;5071663;28;20576;-64
2022/07/23 02:50:56;;;;;;;20.27;11.70;;;;;;;;;;5061393;28;20074;-62
2022/07/23 02:53:22;;;;;;;20.02;11.60;;;;;;;;;;5072409;28;20465;-63
2022/07/23 02:55:47;;;;;;;24.27;12.30;;;;;;;;;;5061082;28;20074;-63
2022/07/23 02:58:13;;;;;;;20.33;11.18;;;;;;;;;;5072029;28;20032;-63
2022/07/23 03:00:38;;;;;;;20.00;11.55;;;;;;;;;;5071144;28;20032;-63
2022/07/23 03:03:03;;;;;;;23.33;11.57;;;;;;;;;;5069450;28;20024;-62
2022/07/23 03:05:29;;;;;;;22.10;12.02;;;;;;;;;;5052315;28;20029;-63
2022/07/23 03:07:54;;;;;;;21.20;12.13;;;;;;;;;;5051953;28;20036;-63
2022/07/23 03:10:19;;;;;;;31.58;13.27;;;;;;;;;;5050381;28;20037;-63
2022/07/23 03:12:45;;;;;;;23.63;12.65;;;;;;;;;;5052010;28;20082;-63
2022/07/23 03:15:10;;;;;;;24.48;13.20;;;;;;;;;;5071431;28;20097;-63
2022/07/23 03:17:36;;;;;;;23.92;12.38;;;;;;;;;;5064990;28;20032;-63
2022/07/23 03:20:01;;;;;;;24.58;12.98;;;;;;;;;;5072766;28;20354;-63
2022/07/23 03:22:26;;;;;;;24.63;12.77;;;;;;;;;;5066738;28;20032;-63
2022/07/23 03:24:55;;;;;;;24.85;12.93;;;;;;;;;;5051655;28;20499;-63
2022/07/23 03:27:25;;;;;;;29.35;12.60;;;;;;;;;;5055302;28;20105;-62
2022/07/23 03:29:52;;;;;;;22.58;12.60;;;;;;;;;;5070215;28;20033;-62
2022/07/23 03:32:18;;;;;;;24.40;12.80;;;;;;;;;;5063984;28;20040;-62
2022/07/23 03:34:43;;;;;;;28.10;12.52;;;;;;;;;;5071711;28;20046;-63
2022/07/23 03:37:09;;;;;;;23.15;12.60;;;;;;;;;;5056633;28;20548;-62
2022/07/23 03:39:34;;;;;;;22.67;11.73;;;;;;;;;;5050746;28;20029;-62
2022/07/23 03:42:00;;;;;;;24.33;11.68;;;;;;;;;;5050559;28;20146;-62
2022/07/23 03:44:25;;;;;;;23.80;12.55;;;;;;;;;;5065053;28;20090;-62
2022/07/23 03:46:50;;;;;;;27.63;13.55;;;;;;;;;;5056773;28;20299;-62
2022/07/23 03:49:16;;;;;;;22.05;12.88;;;;;;;;;;5052139;28;20540;-63
2022/07/23 03:51:42;;;;;;;27.58;13.63;;;;;;;;;;5050648;28;20033;-63
2022/07/23 03:54:07;;;;;;;23.75;13.13;;;;;;;;;;5064548;28;20038;-63
2022/07/23 03:56:33;;;;;;;22.80;13.05;;;;;;;;;;5067304;28;20072;-63
2022/07/23 03:58:58;;;;;;;26.52;14.23;;;;;;;;;;5071549;28;20469;-62
2022/07/23 04:01:23;;;;;;;34.83;15.02;;;;;;;;;;5067309;28;20040;-63
2022/07/23 04:03:49;;;;;;;31.00;14.52;;;;;;;;;;5059279;28;20025;-62
2022/07/23 04:06:14;;;;;;;29.65;14.38;;;;;;;;;;5051558;28;20112;-62
2022/07/23 04:08:40;;;;;;;32.72;14.75;;;;;;;;;;5053773;28;20033;-62
2022/07/23 04:11:05;;;;;;;30.25;15.05;;;;;;;;;;5051742;28;20033;-62
2022/07/23 04:13:32;;;;;;;25.30;13.93;;;;;;;;;;5054027;28;20033;-62
2022/07/23 04:15:58;;;;;;;34.45;14.65;;;;;;;;;;5033515;28;20032;-62
2022/07/23 04:18:24;;;;;;;30.25;14.30;;;;;;;;;;5051392;28;20036;-63
2022/07/23 04:20:51;;;;;;;29.25;13.65;;;;;;;;;;5064754;28;20031;-63
2022/07/23 04:23:17;;;;;;;33.85;14.57;;;;;;;;;;5069000;28;20036;-63
2022/07/23 04:25:42;;;;;;;31.25;15.07;;;;;;;;;;5070935;28;20031;-62
2022/07/23 04:28:08;;;;;;;31.80;15.23;;;;;;;;;;5070492;28;20029;-63
2022/07/23 04:30:33;;;;;;;33.17;15.60;;;;;;;;;;5090878;28;20454;-62
2022/07/23 04:32:59;;;;;;;32.88;15.43;;;;;;;;;;5074399;28;20388;-63
2022/07/23 04:35:24;;;;;;;31.80;14.80;;;;;;;;;;5071246;28;20116;-63
2022/07/23 04:37:50;;;;;;;31.10;14.85;;;;;;;;;;5055073;28;20426;-63
2022/07/23 04:40:15;;;;;;;29.20;15.20;;;;;;;;;;5051382;28;20446;-63
2022/07/23 04:42:40;;;;;;;36.88;16.35;;;;;;;;;;5070730;28;20028;-63
2022/07/23 04:45:06;;;;;;;34.17;15.30;;;;;;;;;;5062603;28;21901;-62
2022/07/23 04:47:32;;;;;;;29.55;14.55;;;;;;;;;;5062467;28;20055;-63
2022/07/23 04:49:57;;;;;;;32.20;15.40;;;;;;;;;;5064679;28;20469;-63
2022/07/23 04:52:23;;;;;;;33.83;15.23;;;;;;;;;;5064627;28;20036;-63
2022/07/23 04:54:49;;;;;;;34.08;15.80;;;;;;;;;;5065025;28;20483;-63
2022/07/23 04:57:15;;;;;;;33.15;14.90;;;;;;;;;;5063212;28;20029;-63
2022/07/23 04:59:40;;;;;;;36.13;15.57;;;;;;;;;;5055648;28;20393;-63
2022/07/23 05:02:05;;;;;;;33.33;15.15;;;;;;;;;;5052463;28;20029;-63
2022/07/23 05:04:31;;;;;;;30.33;15.98;;;;;;;;;;5069299;28;20116;-63
2022/07/23 05:06:57;;;;;;;31.80;15.25;;;;;;;;;;5081700;28;20028;-63
2022/07/23 05:09:23;;;;;;;36.25;15.25;;;;;;;;;;5071410;28;20058;-63
2022/07/23 05:11:49;;;;;;;34.45;16.35;;;;;;;;;;5056760;28;20041;-63
2022/07/23 05:14:14;;;;;;;33.30;16.00;;;;;;;;;;5051336;28;20028;-63
2022/07/23 05:16:40;;;;;;;32.50;16.05;;;;;;;;;;5061062;28;20036;-63
2022/07/23 05:19:05;;;;;;;32.03;15.50;;;;;;;;;;5074810;28;20039;-62
2022/07/23 05:21:31;;;;;;;31.73;14.57;;;;;;;;;;5063818;28;20160;-63
2022/07/23 05:23:56;;;;;;;30.35;15.40;;;;;;;;;;5074970;28;20223;-64
2022/07/23 05:26:22;;;;;;;29.58;14.52;;;;;;;;;;5060808;28;20036;-64
2022/07/23 05:28:47;;;;;;;29.27;14.68;;;;;;;;;;5068469;28;20032;-64
2022/07/23 05:31:12;;;;;;;30.58;15.10;;;;;;;;;;5072987;28;20082;-63
2022/07/23 05:33:38;;;;;;;26.88;14.77;;;;;;;;;;5073251;28;20066;-66
2022/07/23 05:36:04;;;;;;;29.75;14.60;;;;;;;;;;5057695;28;20033;-64
2022/07/23 05:38:30;;;;;;;28.08;14.38;;;;;;;;;;5035304;28;20132;-64
2022/07/23 05:40:55;;;;;;;29.27;13.95;;;;;;;;;;5059417;28;20041;-66
2022/07/23 05:43:21;;;;;;;30.15;14.95;;;;;;;;;;5061319;28;20113;-64
2022/07/23 05:45:46;;;;;;;24.40;13.85;;;;;;;;;;5073622;28;20052;-63
2022/07/23 05:48:12;;;;;;;24.85;13.45;;;;;;;;;;5073669;28;20036;-64
2022/07/23 05:50:38;;;;;;;23.63;12.90;;;;;;;;;;5072436;28;20032;-67
2022/07/23 05:53:03;;;;;;;27.10;12.90;;;;;;;;;;5068801;28;20029;-63
2022/07/23 05:55:31;;;;;;;25.17;13.18;;;;;;;;;;5074636;28;20051;-64
2022/07/23 05:57:57;;;;;;;22.58;13.00;;;;;;;;;;5070164;28;20469;-64
2022/07/23 06:00:24;;;;;;;24.70;13.00;;;;;;;;;;5065593;28;20246;-64
2022/07/23 06:02:49;;;;;;;24.02;13.25;;;;;;;;;;5053603;28;20037;-64
2022/07/23 06:05:15;;;;;;;22.42;13.27;;;;;;;;;;5076558;28;20024;-64
2022/07/23 06:07:40;;;;;;;24.42;13.40;;;;;;;;;;5081436;28;20092;-66
2022/07/23 06:10:06;;;;;;;23.70;13.07;;;;;;;;;;5054381;28;20120;-65
2022/07/23 06:12:32;;;;;;;23.45;13.35;;;;;;;;;;5064389;28;20463;-64
2022/07/23 06:14:57;;;;;;;25.63;13.40;;;;;;;;;;5055252;28;20031;-64
2022/07/23 06:17:22;;;;;;;26.00;13.77;;;;;;;;;;5075526;28;20029;-64
2022/07/23 06:19:48;;;;;;;27.23;14.50;;;;;;;;;;5065626;28;20033;-64
2022/07/23 06:22:13;;;;;;;24.45;14.18;;;;;;;;;;5056775;28;20029;-64
2022/07/23 06:24:39;;;;;;;27.85;15.75;;;;;;;;;;5064795;28;20426;-65
2022/07/23 06:27:04;;;;;;;26.92;14.65;;;;;;;;;;5056137;28;20036;-65
2022/07/23 06:29:30;;;;;;;29.23;14.68;;;;;;;;;;5073519;28;20353;-64
2022/07/23 06:31:55;;;;;;;26.00;14.57;;;;;;;;;;5069337;28;20397;-64
2022/07/23 06:34:21;;;;;;;26.98;14.70;;;;;;;;;;5074351;28;20358;-63
2022/07/23 06:36:46;;;;;;;24.58;14.90;;;;;;;;;;5057716;28;20036;-64
2022/07/23 06:39:11;;;;;;;27.95;14.50;;;;;;;;;;5048670;28;20420;-65
2022/07/23 06:41:37;;;;;;;29.73;14.32;;;;;;;;;;5073579;28;20036;-64
2022/07/23 06:44:03;;;;;;;23.70;13.45;;;;;;;;;;5068920;28;20032;-64
2022/07/23 06:46:28;;;;;;;23.75;14.30;;;;;;;;;;5073443;28;20125;-64
2022/07/23 06:48:53;;;;;;;22.20;13.18;;;;;;;;;;5071883;28;20032;-64
2022/07/23 06:51:19;;;;;;;23.52;13.52;;;;;;;;;;5073615;28;20104;-66
2022/07/23 06:53:44;;;;;;;19.10;11.95;;;;;;;;;;5059782;28;20056;-65
2022/07/23 06:56:10;;;;;;;19.20;11.50;;;;;;;;;;5044889;28;20130;-64
2022/07/23 06:58:35;;;;;;;16.52;11.68;;;;;;;;;;5064605;28;20362;-63
2022/07/23 07:01:01;;;;;;;16.27;10.45;;;;;;;;;;5071962;28;20056;-65
2022/07/23 07:03:26;;;;;;;17.02;9.68;;;;;;;;;;5072355;28;20109;-64
2022/07/23 07:05:52;;;;;;;16.23;9.90;;;;;;;;;;5067733;28;20036;-63
2022/07/23 07:08:18;;;;;;;15.63;9.18;;;;;;;;;;5063375;28;20036;-64
2022/07/23 07:10:43;;;;;;;13.88;9.20;;;;;;;;;;5070764;28;20042;-64
2022/07/23 07:13:09;;;;;;;14.52;8.52;;;;;;;;;;5069196;28;20041;-63
2022/07/23 07:15:34;;;;;;;12.30;7.97;;;;;;;;;;5058539;28;20035;-64
2022/07/23 07:18:00;;;;;;;14.40;7.97;;;;;;;;;;5063318;28;20103;-63
2022/07/23 07:20:25;;;;;;;12.90;7.88;;;;;;;;;;5064662;28;20024;-64
2022/07/23 07:22:51;;;;;;;12.90;8.90;;;;;;;;;;5064783;28;20032;-65
2022/07/23 07:25:16;;;;;;;12.75;8.75;;;;;;;;;;5063312;28;20469;-64
2022/07/23 07:27:43;;;;;;;10.68;7.80;;;;;;;;;;5070964;28;20631;-64
2022/07/23 07:30:10;;;;;;;13.93;7.43;;;;;;;;;;5072195;28;20032;-64
2022/07/23 07:32:36;;;;;;;12.20;7.18;;;;;;;;;;5056727;28;20048;-64
2022/07/23 07:35:03;;;;;;;11.05;7.50;;;;;;;;;;5051238;28;20037;-64
2022/07/23 07:37:29;;;;;;;12.73;6.93;;;;;;;;;;5068162;28;20465;-63
2022/07/23 07:39:55;;;;;;;13.00;6.30;;;;;;;;;;5069739;28;20025;-64
2022/07/23 07:42:20;;;;;;;11.38;6.43;;;;;;;;;;5072498;28;20025;-64
2022/07/23 07:44:46;;;;;;;10.70;5.95;;;;;;;;;;5068412;28;20028;-65
2022/07/23 07:47:11;;;;;;;9.20;5.60;;;;;;;;;;5071833;28;20048;-65
2022/07/23 07:49:36;;;;;;;7.95;5.13;;;;;;;;;;5054462;28;20082;-65
2022/07/23 07:52:02;;;;;;;12.02;5.00;;;;;;;;;;5051090;28;20043;-65
2022/07/23 07:54:28;;;;;;;7.75;4.97;;;;;;;;;;5064665;28;20103;-64
2022/07/23 07:56:53;;;;;;;7.57;5.20;;;;;;;;;;5071443;28;20457;-65
2022/07/23 07:59:19;;;;;;;8.90;5.35;;;;;;;;;;5092180;28;20028;-65
2022/07/23 08:01:44;;;;;;;10.57;5.80;;;;;;;;;;5073851;28;20035;-66
2022/07/23 08:04:09;;;;;;;9.13;5.88;;;;;;;;;;5069401;28;20362;-65
2022/07/23 08:06:35;;;;;;;10.98;6.45;;;;;;;;;;5056449;28;20079;-65
2022/07/23 08:09:00;;;;;;;10.60;7.63;;;;;;;;;;5064203;28;20039;-64
2022/07/23 08:11:26;;;;;;;13.57;10.25;;;;;;;;;;5071127;28;20511;-64
2022/07/23 08:13:51;;;;;;;15.38;10.57;;;;;;;;;;5069553;28;20032;-65
2022/07/23 08:16:17;;;;;;;14.63;11.20;;;;;;;;;;5070645;28;20097;-65
2022/07/23 08:18:42;;;;;;;13.60;9.88;;;;;;;;;;5061307;28;20036;-64
2022/07/23 08:21:07;;;;;;;11.20;8.50;;;;;;;;;;5068915;28;20024;-64
2022/07/23 08:23:34;;;;;;;14.73;12.00;;;;;;;;;;5070943;28;20032;-64
2022/07/23 08:26:00;;;;;;;10.73;9.63;;;;;;;;;;5051174;28;20033;-64
2022/07/23 08:28:26;;;;;;;13.73;9.80;;;;;;;;;;5050167;28;20059;-64
2022/07/23 08:30:51;;;;;;;12.07;9.40;;;;;;;;;;5034158;28;20067;-64
2022/07/23 08:33:17;;;;;;;12.15;8.98;;;;;;;;;;5069970;28;20119;-63
2022/07/23 08:35:49;;;;;;;13.05;9.95;;;;;;;;;;5061615;28;20058;-65
2022/07/23 08:38:17;;;;;;;12.57;9.48;;;;;;;;;;5050704;28;20484;-65
2022/07/23 08:40:45;;;;;;;11.82;8.55;;;;;;;;;;5051232;28;20082;-63
2022/07/23 08:43:14;;;;;;;11.55;9.02;;;;;;;;;;5054898;28;20591;-64
2022/07/23 08:45:44;;;;;;;10.20;7.85;;;;;;;;;;5064650;28;20461;-64
2022/07/23 08:48:30;;;;;;;11.80;9.02;;;;;;;;;;5050647;28;20675;-64
2022/07/23 08:50:58;;;;;;;10.05;8.60;;;;;;;;;;5077103;28;20043;-63
2022/07/23 08:53:26;;;;;;;11.80;8.85;;;;;;;;;;5063282;28;20033;-61
2022/07/23 08:55:53;;;;;;;12.48;8.55;;;;;;;;;;5054500;28;20151;-62
2022/07/23 08:58:20;;;;;;;12.93;9.25;;;;;;;;;;5055760;28;20029;-60
2022/07/23 09:00:46;;;;;;;12.73;9.05;;;;;;;;;;5061492;28;20056;-61
2022/07/23 09:03:34;;;;;;;10.52;9.05;;;;;;;;;;5074794;28;20067;-61
2022/07/23 09:06:03;;;;;;;12.25;8.82;;;;;;;;;;5074598;28;20058;-61
2022/07/23 09:08:40;;;;;;;11.25;9.48;;;;;;;;;;5075519;28;20021;-61
2022/07/23 09:11:10;;;;;;;13.85;9.00;;;;;;;;;;5074047;28;20043;-61
2022/07/23 09:13:43;;;;;;;11.60;8.05;;;;;;;;;;5059786;28;20064;-61
2022/07/23 09:16:10;;;;;;;10.10;7.72;;;;;;;;;;5054667;28;20091;-61
2022/07/23 09:18:39;;;;;;;11.10;7.57;;;;;;;;;;5055384;28;20098;-61
2022/07/23 09:21:10;;;;;;;8.45;7.32;;;;;;;;;;5054014;28;20028;-61
2022/07/23 09:23:44;;;;;;;9.02;7.03;;;;;;;;;;5055000;28;20090;-62
2022/07/23 09:26:21;;;;;;;7.57;6.10;;;;;;;;;;5054418;28;20032;-61
2022/07/23 09:29:01;;;;;;;8.45;5.07;;;;;;;;;;5075190;28;20033;-61
2022/07/23 09:31:51;;;;;;;7.65;5.50;;;;;;;;;;5075056;28;20134;-61
2022/07/23 09:34:40;;;;;;;7.53;5.47;;;;;;;;;;5063534;28;20451;-61
2022/07/23 09:37:32;;;;;;;8.30;5.95;;;;;;;;;;5074194;28;20032;-61
2022/07/23 09:40:08;;;;;;;7.60;4.82;;;;;;;;;;5071752;28;20469;-61
2022/07/23 09:42:34;;;;;;;6.97;5.00;;;;;;;;;;5074753;28;20463;-61
2022/07/23 09:45:00;;;;;;;8.30;4.65;;;;;;;;;;5073897;28;20103;-62
2022/07/23 09:47:28;;;;;;;8.18;4.32;;;;;;;;;;5064129;28;20124;-60
2022/07/23 09:50:08;;;;;;;5.72;4.00;;;;;;;;;;5054121;28;20033;-63
2022/07/23 09:52:41;;;;;;;6.43;4.22;;;;;;;;;;5054530;28;20384;-61
2022/07/23 09:55:06;;;;;;;5.32;4.00;;;;;;;;;;5054048;28;20086;-61
2022/07/23 09:57:33;;;;;;;8.00;4.20;;;;;;;;;;5054536;28;20024;-61
2022/07/23 10:00:04;;;;;;;6.97;4.05;;;;;;;;;;5053486;28;20033;-62
2022/07/23 10:02:32;;;;;;;5.88;3.78;;;;;;;;;;5046040;28;20059;-61
2022/07/23 10:04:58;;;;;;;5.40;3.67;;;;;;;;;;5053214;28;20427;-61
2022/07/23 10:07:26;;;;;;;6.20;3.90;;;;;;;;;;5054199;28;20033;-61
2022/07/23 10:09:53;;;;;;;5.50;3.90;;;;;;;;;;5054043;28;20036;-62
2022/07/23 10:12:31;;;;;;;6.43;4.18;;;;;;;;;;5053709;28;20033;-61
2022/07/23 10:14:57;;;;;;;7.10;4.75;;;;;;;;;;5053292;28;20021;-62
2022/07/23 10:17:24;;;;;;;6.65;4.60;;;;;;;;;;5054260;28;20032;-61
2022/07/23 10:19:49;;;;;;;5.47;4.25;;;;;;;;;;5053910;28;20032;-61
2022/07/23 10:22:50;;;;;;;6.55;5.03;;;;;;;;;;5053283;28;20021;-61
2022/07/23 10:25:37;;;;;;;8.68;5.25;;;;;;;;;;5053599;28;20059;-61
2022/07/23 10:28:42;;;;;;;8.23;4.95;;;;;;;;;;5052615;28;20032;-61
2022/07/23 10:31:27;;;;;;;6.22;4.65;;;;;;;;;;5059922;28;20413;-61
2022/07/23 10:34:13;;;;;;;6.60;4.13;;;;;;;;;;5053580;28;20183;-62
2022/07/23 10:36:46;;;;;;;7.15;4.50;;;;;;;;;;5073021;28;20036;-62
2022/07/23 10:39:28;;;;;;;5.05;4.00;;;;;;;;;;5068989;28;20110;-63
2022/07/23 10:42:14;;;;;;;6.35;3.70;;;;;;;;;;5053288;28;20029;-62
2022/07/23 10:44:45;;;;;;;6.85;4.20;;;;;;;;;;5053542;28;20051;-63
2022/07/23 10:49:44;;;;;;;6.75;4.15;;;;;;;;;;5063520;28;20051;-62
2022/07/23 10:52:21;;;;;;;7.82;3.65;;;;;;;;;;5069981;28;20028;-62
2022/07/23 10:54:55;;;;;;;6.13;3.95;;;;;;;;;;5059511;28;20032;-63
2022/07/23 10:57:25;;;;;;;5.25;4.00;;;;;;;;;;5070481;28;20039;-63
2022/07/23 11:00:00;;;;;;;6.85;4.15;;;;;;;;;;5071741;28;20036;-64
2022/07/23 11:02:28;;;;;;;7.57;3.70;;;;;;;;;;5052966;28;20044;-63
2022/07/23 11:04:58;;;;;;;9.40;4.03;;;;;;;;;;5069152;28;20078;-63
2022/07/23 11:07:24;;;;;;;5.72;3.50;;;;;;;;;;5067899;28;20040;-62
2022/07/23 11:09:49;;;;;;;5.10;3.30;;;;;;;;;;5064911;28;20040;-62
2022/07/23 11:12:20;;;;;;;8.15;3.28;;;;;;;;;;5068741;28;20043;-62
2022/07/23 11:15:04;;;;;;;5.43;3.03;;;;;;;;;;5061892;28;20046;-62
2022/07/23 11:17:31;;;;;;;3.40;2.50;;;;;;;;;;5071971;28;20028;-64
2022/07/23 11:20:09;;;;;;;7.78;3.13;;;;;;;;;;5043106;28;20066;-64
2022/07/23 11:22:39;;;;;;;5.30;3.25;;;;;;;;;;5072033;28;20036;-62
2022/07/23 11:25:05;;;;;;;6.80;2.70;;;;;;;;;;5061721;28;20029;-62
2022/07/23 11:27:44;;;;;;;2.72;2.22;;;;;;;;;;5046408;28;20032;-63
2022/07/23 11:30:30;;;;;;;2.80;2.05;;;;;;;;;;5060894;28;20117;-64
2022/07/23 11:33:05;;;;;;;3.10;2.20;;;;;;;;;;5053588;28;20040;-63
2022/07/23 11:35:31;;;;;;;4.28;1.98;;;;;;;;;;5071181;28;20055;-63
2022/07/23 11:38:08;;;;;;;2.38;1.90;;;;;;;;;;5072412;28;20032;-65
2022/07/23 11:40:35;;;;;;;6.30;2.15;;;;;;;;;;5058331;28;20043;-62
2022/07/23 11:43:06;;;;;;;3.00;1.80;;;;;;;;;;5068549;28;20056;-64
2022/07/23 11:45:37;;;;;;;2.33;1.90;;;;;;;;;;5054649;28;20033;-62
2022/07/23 11:48:06;;;;;;;3.67;2.30;;;;;;;;;;5071722;28;20039;-63
2022/07/23 11:50:32;;;;;;;4.07;2.13;;;;;;;;;;5057043;28;20065;-63
2022/07/23 11:52:58;;;;;;;5.80;2.25;;;;;;;;;;5060981;28;20068;-64
2022/07/23 11:55:24;;;;;;;5.18;2.17;;;;;;;;;;5070927;28;20063;-65
2022/07/23 11:57:52;;;;;;;2.47;2.10;;;;;;;;;;5053484;28;20041;-62
2022/07/23 12:00:21;;;;;;;4.60;2.30;;;;;;;;;;5051156;28;20628;-63
2022/07/23 12:02:49;;;;;;;2.40;2.00;;;;;;;;;;5069198;28;20063;-63
2022/07/23 12:05:28;;;;;;;3.55;2.20;;;;;;;;;;5071337;28;20455;-63
2022/07/23 12:07:56;;;;;;;3.58;1.98;;;;;;;;;;5071396;28;20033;-61
2022/07/23 12:10:21;;;;;;;2.83;2.40;;;;;;;;;;5069974;28;20587;-63
2022/07/23 12:12:49;;;;;;;3.03;2.30;;;;;;;;;;5065165;28;20029;-64
2022/07/23 12:15:16;;;;;;;5.28;2.10;;;;;;;;;;5045848;28;20067;-63
2022/07/23 12:17:45;;;;;;;4.47;2.22;;;;;;;;;;5053406;28;20052;-64
2022/07/23 12:20:14;;;;;;;3.58;2.40;;;;;;;;;;5059973;28;20203;-64
2022/07/23 12:22:42;;;;;;;4.47;2.65;;;;;;;;;;5051083;28;20446;-63
2022/07/23 12:25:15;;;;;;;4.00;2.78;;;;;;;;;;5062830;28;20043;-63
2022/07/23 12:27:41;;;;;;;3.97;2.28;;;;;;;;;;5052048;28;20033;-63
2022/07/23 12:30:26;;;;;;;3.78;2.20;;;;;;;;;;5053811;28;20039;-64
2022/07/23 12:32:54;;;;;;;3.70;2.40;;;;;;;;;;5059059;28;20033;-63
2022/07/23 12:35:22;;;;;;;3.90;1.88;;;;;;;;;;5063403;28;20182;-65
2022/07/23 12:37:52;;;;;;;2.97;1.98;;;;;;;;;;5038569;28;20464;-64
2022/07/23 12:40:25;;;;;;;3.80;2.08;;;;;;;;;;5061806;28;20028;-65
2022/07/23 12:43:02;;;;;;;2.92;1.80;;;;;;;;;;5071121;28;20048;-63
2022/07/23 12:45:43;;;;;;;1.70;1.60;;;;;;;;;;5059945;28;20021;-64
2022/07/23 12:48:08;;;;;;;;;;;;;;;;;;5051076;28;20060;-65
2022/07/23 12:50:48;;;;;;;3.83;2.00;;;;;;;;;;5051412;28;20305;-65
2022/07/23 12:53:26;;;;;;;3.15;1.90;;;;;;;;;;5050612;28;20187;-64
2022/07/23 12:56:06;;;;;;;3.67;2.17;;;;;;;;;;5065914;28;20470;-63
2022/07/23 12:58:43;;;;;;;4.18;1.80;;;;;;;;;;5071645;28;20040;-63
2022/07/23 13:01:10;;;;;;;4.50;2.10;;;;;;;;;;5069850;28;20075;-64
2022/07/23 13:03:40;;;;;;;2.92;1.98;;;;;;;;;;5051627;28;20033;-64
2022/07/23 13:06:08;;;;;;;4.28;2.35;;;;;;;;;;5050736;28;20112;-64
2022/07/23 13:08:36;;;;;;;6.18;2.42;;;;;;;;;;5051900;28;20033;-63
2022/07/23 13:11:02;;;;;;;4.13;2.03;;;;;;;;;;5069198;28;20045;-63
2022/07/23 13:13:30;;;;;;;4.28;2.10;;;;;;;;;;5045639;28;20033;-64
2022/07/23 13:15:56;;;;;;;3.90;2.20;;;;;;;;;;5050453;28;20367;-64
2022/07/23 13:18:22;;;;;;;4.35;2.65;;;;;;;;;;5054500;28;20037;-63
2022/07/23 13:20:49;;;;;;;4.40;2.03;;;;;;;;;;5051166;28;20044;-63
2022/07/23 13:23:15;;;;;;;9.13;2.20;;;;;;;;;;5062187;28;20082;-64
2022/07/23 13:25:41;;;;;;;2.88;2.00;;;;;;;;;;5069024;28;20043;-64
2022/07/23 13:28:07;;;;;;;4.68;1.90;;;;;;;;;;5065612;28;20029;-66
2022/07/23 13:30:33;;;;;;;2.45;2.05;;;;;;;;;;5068603;28;20040;-64
2022/07/23 13:32:58;;;;;;;6.15;2.00;;;;;;;;;;5068640;28;20128;-63
2022/07/23 13:35:24;;;;;;;4.60;2.33;;;;;;;;;;5065768;28;20053;-65
2022/07/23 13:37:49;;;;;;;3.85;2.10;;;;;;;;;;5059320;28;20104;-62
2022/07/23 13:40:15;;;;;;;3.20;2.20;;;;;;;;;;5066908;28;20024;-63
2022/07/23 13:42:40;;;;;;;3.05;2.60;;;;;;;;;;5072696;28;20047;-62
2022/07/23 13:45:07;;;;;;;14.65;10.85;;;;;;;;;;5068440;28;20039;-63
2022/07/23 13:47:33;;;;;;;3.13;2.28;;;;;;;;;;5073149;28;20044;-63
2022/07/23 13:49:58;;;;;;;6.70;4.03;;;;;;;;;;5055390;28;20039;-62
2022/07/23 13:52:24;;;;;;;4.75;2.80;;;;;;;;;;5064157;28;20107;-61
2022/07/23 13:54:50;;;;;;;3.80;2.90;;;;;;;;;;5058633;28;20128;-63
2022/07/23 13:57:15;;;;;;;4.38;2.45;;;;;;;;;;5073553;28;20035;-63
2022/07/23 13:59:40;;;;;;;4.75;3.03;;;;;;;;;;5069300;28;20083;-62
2022/07/23 14:02:06;;;;;;;6.72;2.65;;;;;;;;;;5054544;28;20115;-63
2022/07/23 14:04:32;;;;;;;5.22;3.10;;;;;;;;;;5053652;28;20025;-63
2022/07/23 14:06:57;;;;;;;4.82;2.15;;;;;;;;;;5060739;28;20033;-63
2022/07/23 14:09:23;;;;;;;3.50;2.15;;;;;;;;;;5067892;28;20435;-62
2022/07/23 14:11:50;;;;;;;5.32;2.60;;;;;;;;;;5057513;28;20370;-63
2022/07/23 14:14:16;;;;;;;4.95;3.10;;;;;;;;;;5041942;28;20051;-63
2022/07/23 14:16:42;;;;;;;6.30;3.60;;;;;;;;;;5073507;28;20044;-62
2022/07/23 14:19:08;;;;;;;6.57;3.10;;;;;;;;;;5064905;28;20037;-63
2022/07/23 14:21:33;;;;;;;3.47;2.40;;;;;;;;;;5065511;28;20426;-63
2022/07/23 14:23:59;;;;;;;4.78;2.40;;;;;;;;;;5073040;28;20032;-62
2022/07/23 14:26:24;;;;;;;3.50;2.40;;;;;;;;;;5081239;28;20034;-63
2022/07/23 14:28:50;;;;;;;6.43;3.28;;;;;;;;;;5092746;28;20445;-62
2022/07/23 14:31:15;;;;;;;3.05;2.65;;;;;;;;;;5061898;28;20037;-63
2022/07/23 14:33:41;;;;;;;2.83;2.25;;;;;;;;;;5062976;28;20025;-62
2022/07/23 14:36:06;;;;;;;4.00;2.35;;;;;;;;;;5060124;28;20379;-64